GLORD EGHI-EGUB
Flight info
| Callsign | GLORD |
|---|---|
| Flight time | 0h 18m |
| Altitude | 3000 |
| Route | DCT EGUB VFR |
| Aircraft | PA34/L-V/N |
Departure
| Time | 2026-05-08 14:47 |
|---|---|
| Airport | Southampton Airport (EGHI) |
Arrival
| Time | 2026-05-08 15:06 |
|---|---|
| Airport | RAF Benson (EGUB) |
| Time | Latitude | Longitude | Altitude | Speed | Heading |
|---|---|---|---|---|---|
| 2026-05-08 14:42 | 50.95303 | -1.35854 | 40 ft | 0 kts | 202° |
| 2026-05-08 14:45 | 50.95289 | -1.35860 | 40 ft | 6 kts | 189° |
| 2026-05-08 14:45 | 50.95227 | -1.35879 | 40 ft | 9 kts | 195° |
| 2026-05-08 14:46 | 50.95159 | -1.35901 | 40 ft | 10 kts | 190° |
| 2026-05-08 14:46 | 50.95082 | -1.35902 | 40 ft | 11 kts | 162° |
| 2026-05-08 14:46 | 50.95045 | -1.35819 | 40 ft | 9 kts | 112° |
| 2026-05-08 14:46 | 50.95039 | -1.35678 | 40 ft | 15 kts | 30° |
| 2026-05-08 14:47 | 50.95298 | -1.35526 | 47 ft | 72 kts | 19° |
| 2026-05-08 14:47 | 50.95847 | -1.35309 | 275 ft | 90 kts | 21° |
| 2026-05-08 14:47 | 50.96476 | -1.34976 | 484 ft | 97 kts | 26° |
| 2026-05-08 14:47 | 50.97134 | -1.34643 | 675 ft | 103 kts | 21° |
| 2026-05-08 14:48 | 50.97879 | -1.34374 | 741 ft | 123 kts | 19° |
| 2026-05-08 14:48 | 50.98740 | -1.34045 | 804 ft | 130 kts | 17° |
| 2026-05-08 14:48 | 50.99604 | -1.33756 | 978 ft | 128 kts | 17° |
| 2026-05-08 14:48 | 51.00488 | -1.33465 | 1082 ft | 132 kts | 17° |
| 2026-05-08 14:49 | 51.01397 | -1.33114 | 1202 ft | 135 kts | 19° |
| 2026-05-08 14:49 | 51.02336 | -1.32887 | 1358 ft | 136 kts | 13° |
| 2026-05-08 14:49 | 51.03272 | -1.32630 | 1511 ft | 136 kts | 17° |
| 2026-05-08 14:49 | 51.04187 | -1.32314 | 1656 ft | 134 kts | 18° |
| 2026-05-08 14:50 | 51.05097 | -1.31977 | 1788 ft | 134 kts | 19° |
| 2026-05-08 14:50 | 51.06001 | -1.31630 | 1915 ft | 133 kts | 19° |
| 2026-05-08 14:50 | 51.06886 | -1.31285 | 2026 ft | 129 kts | 21° |
| 2026-05-08 14:50 | 51.07722 | -1.30843 | 2127 ft | 127 kts | 21° |
| 2026-05-08 14:51 | 51.08582 | -1.30547 | 2226 ft | 129 kts | 18° |
| 2026-05-08 14:51 | 51.09473 | -1.30235 | 2292 ft | 132 kts | 19° |
| 2026-05-08 14:51 | 51.10379 | -1.29901 | 2373 ft | 133 kts | 19° |
| 2026-05-08 14:51 | 51.11280 | -1.29562 | 2459 ft | 135 kts | 18° |
| 2026-05-08 14:52 | 51.12209 | -1.29210 | 2560 ft | 137 kts | 18° |
| 2026-05-08 14:52 | 51.14103 | -1.28479 | 2658 ft | 145 kts | 18° |
| 2026-05-08 14:52 | 51.15078 | -1.28087 | 2654 ft | 145 kts | 19° |
| 2026-05-08 14:53 | 51.16063 | -1.27689 | 2654 ft | 143 kts | 19° |
| 2026-05-08 14:53 | 51.17030 | -1.27304 | 2655 ft | 144 kts | 19° |
| 2026-05-08 14:53 | 51.18005 | -1.26916 | 2654 ft | 142 kts | 19° |
| 2026-05-08 14:53 | 51.18948 | -1.26542 | 2655 ft | 141 kts | 19° |
| 2026-05-08 14:54 | 51.19908 | -1.26161 | 2654 ft | 140 kts | 19° |
| 2026-05-08 14:54 | 51.20855 | -1.25786 | 2656 ft | 140 kts | 19° |
| 2026-05-08 14:54 | 51.21796 | -1.25414 | 2657 ft | 142 kts | 19° |
| 2026-05-08 14:54 | 51.22763 | -1.25034 | 2657 ft | 143 kts | 19° |
| 2026-05-08 14:55 | 51.23729 | -1.24655 | 2656 ft | 140 kts | 19° |
| 2026-05-08 14:55 | 51.24662 | -1.24283 | 2657 ft | 137 kts | 19° |
| 2026-05-08 14:55 | 51.25585 | -1.23914 | 2658 ft | 136 kts | 19° |
| 2026-05-08 14:55 | 51.26511 | -1.23547 | 2660 ft | 137 kts | 18° |
| 2026-05-08 14:56 | 51.27448 | -1.23179 | 2659 ft | 138 kts | 18° |
| 2026-05-08 14:56 | 51.28368 | -1.22815 | 2658 ft | 136 kts | 19° |
| 2026-05-08 14:56 | 51.29285 | -1.22450 | 2659 ft | 134 kts | 19° |
| 2026-05-08 14:56 | 51.30192 | -1.22092 | 2659 ft | 134 kts | 19° |
| 2026-05-08 14:57 | 51.31102 | -1.21734 | 2660 ft | 134 kts | 18° |
| 2026-05-08 14:57 | 51.31999 | -1.21372 | 2658 ft | 132 kts | 20° |
| 2026-05-08 14:57 | 51.32888 | -1.21012 | 2657 ft | 131 kts | 21° |
| 2026-05-08 14:57 | 51.33722 | -1.20492 | 2644 ft | 131 kts | 21° |
| 2026-05-08 14:58 | 51.34616 | -1.20206 | 2652 ft | 131 kts | 16° |
| 2026-05-08 14:58 | 51.35512 | -1.19912 | 2653 ft | 132 kts | 17° |
| 2026-05-08 14:58 | 51.36408 | -1.19587 | 2653 ft | 132 kts | 18° |
| 2026-05-08 14:58 | 51.37301 | -1.19249 | 2653 ft | 132 kts | 18° |
| 2026-05-08 14:59 | 51.38205 | -1.18899 | 2654 ft | 133 kts | 18° |
| 2026-05-08 14:59 | 51.40010 | -1.18190 | 2652 ft | 134 kts | 18° |
| 2026-05-08 14:59 | 51.40918 | -1.17831 | 2652 ft | 134 kts | 18° |
| 2026-05-08 15:00 | 51.41826 | -1.17472 | 2654 ft | 135 kts | 18° |
| 2026-05-08 15:00 | 51.42738 | -1.17110 | 2655 ft | 135 kts | 18° |
| 2026-05-08 15:00 | 51.43658 | -1.16745 | 2652 ft | 136 kts | 18° |
| 2026-05-08 15:00 | 51.44575 | -1.16381 | 2653 ft | 137 kts | 18° |
| 2026-05-08 15:01 | 51.45502 | -1.16013 | 2656 ft | 137 kts | 18° |
| 2026-05-08 15:01 | 51.46429 | -1.15646 | 2653 ft | 139 kts | 18° |
| 2026-05-08 15:01 | 51.47368 | -1.15274 | 2653 ft | 140 kts | 17° |
| 2026-05-08 15:01 | 51.48317 | -1.14898 | 2655 ft | 141 kts | 17° |
| 2026-05-08 15:02 | 51.49278 | -1.14518 | 2654 ft | 142 kts | 17° |
| 2026-05-08 15:02 | 51.50245 | -1.14126 | 2616 ft | 142 kts | 19° |
| 2026-05-08 15:02 | 51.51207 | -1.13721 | 2474 ft | 146 kts | 19° |
| 2026-05-08 15:02 | 51.52193 | -1.13316 | 2334 ft | 147 kts | 18° |
| 2026-05-08 15:03 | 51.53193 | -1.12911 | 2177 ft | 148 kts | 19° |
| 2026-05-08 15:03 | 51.54225 | -1.12413 | 1530 ft | 160 kts | 22° |
| 2026-05-08 15:03 | 51.55195 | -1.11877 | 1095 ft | 142 kts | 22° |
| 2026-05-08 15:03 | 51.56062 | -1.11425 | 847 ft | 123 kts | 24° |
| 2026-05-08 15:04 | 51.56827 | -1.11040 | 671 ft | 109 kts | 23° |
| 2026-05-08 15:04 | 51.57503 | -1.10753 | 633 ft | 94 kts | 22° |
| 2026-05-08 15:04 | 51.58125 | -1.10520 | 577 ft | 87 kts | 22° |
| 2026-05-08 15:04 | 51.58716 | -1.10316 | 504 ft | 87 kts | 19° |
| 2026-05-08 15:05 | 51.59312 | -1.10133 | 442 ft | 85 kts | 20° |
| 2026-05-08 15:05 | 51.59881 | -1.09965 | 351 ft | 80 kts | 19° |
| 2026-05-08 15:05 | 51.60419 | -1.09833 | 247 ft | 75 kts | 18° |
| 2026-05-08 15:05 | 51.60910 | -1.09719 | 182 ft | 63 kts | 15° |
| 2026-05-08 15:06 | 51.61281 | -1.09626 | 183 ft | 45 kts | 9° |
| 2026-05-08 15:06 | 51.61547 | -1.09590 | 186 ft | 32 kts | 5° |
| 2026-05-08 15:06 | 51.61734 | -1.09527 | 190 ft | 23 kts | 17° |
| 2026-05-08 15:06 | 51.61825 | -1.09398 | 194 ft | 4 kts | 55° |
| 2026-05-08 15:07 | 51.61826 | -1.09396 | 195 ft | 0 kts | 55° |